Time;durP1;ratioP1;P1;durP2;ratioP2;P2;SDS_P1;SDS_P2;PMS_P1;PMS_P2;Temp;Humidity;BMP_temperature;BMP_pressure;BME280_temperature;BME280_humidity;BME280_pressure;Samples;Min_cycle;Max_cycle;Signal;HPM_P1;HPM_P2
2022/12/08 00:00:01;;;;;;;6.85;1.25;;;;;;;;;;5075931;28;20123;-68
2022/12/08 00:02:27;;;;;;;7.45;1.10;;;;;;;;;;5077690;28;20076;-68
2022/12/08 00:10:23;;;;;;;3.92;0.88;;;;;;;;;;5093903;28;20391;-67
2022/12/08 00:12:49;;;;;;;4.07;0.70;;;;;;;;;;5076840;28;20048;-68
2022/12/08 00:15:15;;;;;;;3.70;0.63;;;;;;;;;;5095398;28;20380;-68
2022/12/08 00:17:41;;;;;;;2.80;0.40;;;;;;;;;;5095598;28;20059;-68
2022/12/08 00:20:08;;;;;;;3.80;0.60;;;;;;;;;;5097277;28;20046;-68
2022/12/08 00:22:34;;;;;;;4.53;0.65;;;;;;;;;;5079487;28;20047;-68
2022/12/08 00:25:00;;;;;;;5.13;0.80;;;;;;;;;;5077097;28;20268;-67
2022/12/08 00:27:26;;;;;;;4.00;0.85;;;;;;;;;;5079549;28;20048;-68
2022/12/08 00:29:52;;;;;;;6.68;0.88;;;;;;;;;;5094121;28;20035;-68
2022/12/08 00:32:18;;;;;;;9.25;0.70;;;;;;;;;;5098055;28;20040;-68
2022/12/08 00:34:44;;;;;;;6.40;0.80;;;;;;;;;;5078644;28;20054;-68
2022/12/08 00:37:11;;;;;;;5.72;0.73;;;;;;;;;;5096656;28;20071;-68
2022/12/08 00:39:37;;;;;;;4.10;0.68;;;;;;;;;;5097871;28;20054;-67
2022/12/08 00:42:12;;;;;;;5.70;0.85;;;;;;;;;;5097220;28;20101;-67
2022/12/08 00:44:39;;;;;;;3.63;0.70;;;;;;;;;;5094609;28;20056;-67
2022/12/08 00:47:05;;;;;;;8.27;2.33;;;;;;;;;;5077075;28;20506;-68
2022/12/08 00:49:31;;;;;;;3.10;0.63;;;;;;;;;;5098165;28;20036;-68
2022/12/08 00:51:57;;;;;;;1.65;0.52;;;;;;;;;;5076830;28;20154;-68
2022/12/08 00:54:23;;;;;;;5.43;0.60;;;;;;;;;;5094461;28;20056;-67
2022/12/08 00:56:50;;;;;;;5.40;0.77;;;;;;;;;;5097902;28;20040;-68
2022/12/08 00:59:16;;;;;;;4.32;0.90;;;;;;;;;;5095855;28;20122;-68
2022/12/08 01:01:43;;;;;;;4.85;0.63;;;;;;;;;;5079495;28;20494;-67
2022/12/08 01:04:11;;;;;;;2.55;0.65;;;;;;;;;;5094263;28;20069;-67
2022/12/08 01:06:38;;;;;;;3.38;0.60;;;;;;;;;;5078230;28;20097;-67
2022/12/08 01:09:05;;;;;;;3.05;1.02;;;;;;;;;;5097759;28;20042;-67
2022/12/08 01:11:32;;;;;;;4.63;0.45;;;;;;;;;;5079813;28;20093;-68
2022/12/08 01:13:58;;;;;;;2.22;0.60;;;;;;;;;;5096028;28;20061;-67
2022/12/08 01:16:26;;;;;;;1.52;0.50;;;;;;;;;;5094949;28;20040;-68
2022/12/08 01:18:52;;;;;;;3.67;1.00;;;;;;;;;;5078060;28;20104;-68
2022/12/08 01:21:19;;;;;;;3.40;0.50;;;;;;;;;;5077300;28;20051;-67
2022/12/08 01:23:45;;;;;;;3.80;0.70;;;;;;;;;;5093486;28;20191;-67
2022/12/08 01:26:12;;;;;;;3.25;0.45;;;;;;;;;;5093636;28;20364;-67
2022/12/08 01:28:38;;;;;;;7.55;0.77;;;;;;;;;;5079974;28;20047;-67
2022/12/08 01:31:04;;;;;;;4.70;0.57;;;;;;;;;;5094920;28;20044;-67
2022/12/08 01:33:31;;;;;;;6.05;0.60;;;;;;;;;;5093497;28;20082;-67
2022/12/08 01:36:02;;;;;;;2.97;0.65;;;;;;;;;;5096044;28;20036;-68
2022/12/08 01:38:28;;;;;;;3.08;0.80;;;;;;;;;;5097200;28;20122;-67
2022/12/08 01:40:54;;;;;;;7.57;0.45;;;;;;;;;;5078763;28;20156;-68
2022/12/08 01:43:20;;;;;;;4.05;0.52;;;;;;;;;;5098792;28;20178;-68
2022/12/08 01:45:47;;;;;;;3.45;0.90;;;;;;;;;;5095601;28;20050;-67
2022/12/08 01:48:17;;;;;;;2.92;0.82;;;;;;;;;;5098147;28;20081;-67
2022/12/08 01:50:44;;;;;;;4.32;0.70;;;;;;;;;;5098375;28;20507;-68
2022/12/08 01:53:13;;;;;;;3.50;0.63;;;;;;;;;;5077802;28;20146;-67
2022/12/08 01:55:43;;;;;;;4.65;0.70;;;;;;;;;;5093506;28;20039;-67
2022/12/08 01:58:13;;;;;;;5.80;0.50;;;;;;;;;;5097811;28;20489;-68
2022/12/08 02:00:39;;;;;;;2.58;0.60;;;;;;;;;;5078521;28;20075;-68
2022/12/08 02:03:09;;;;;;;4.90;0.60;;;;;;;;;;5097080;28;20532;-68
2022/12/08 02:05:36;;;;;;;5.70;0.80;;;;;;;;;;5076026;28;20075;-68
2022/12/08 02:08:05;;;;;;;7.22;1.25;;;;;;;;;;5093197;28;20410;-67
2022/12/08 02:10:33;;;;;;;2.08;0.57;;;;;;;;;;5098116;28;21005;-68
2022/12/08 02:13:00;;;;;;;4.65;1.08;;;;;;;;;;5098964;28;20122;-68
2022/12/08 02:15:32;;;;;;;8.70;0.95;;;;;;;;;;5096446;28;20050;-67
2022/12/08 02:18:07;;;;;;;5.45;0.75;;;;;;;;;;5060165;28;20055;-67
2022/12/08 02:20:38;;;;;;;4.20;0.50;;;;;;;;;;5077778;28;20046;-67
2022/12/08 02:23:10;;;;;;;3.10;0.70;;;;;;;;;;5095398;28;20047;-67
2022/12/08 02:25:36;;;;;;;6.40;0.73;;;;;;;;;;5073039;28;20043;-68
2022/12/08 02:28:08;;;;;;;6.80;0.65;;;;;;;;;;5086910;28;20047;-67
2022/12/08 02:30:35;;;;;;;3.35;0.70;;;;;;;;;;5093208;28;20221;-68
2022/12/08 02:33:07;;;;;;;6.03;0.70;;;;;;;;;;5097588;28;21745;-67
2022/12/08 02:35:48;;;;;;;1.92;0.50;;;;;;;;;;5092703;28;21149;-67
2022/12/08 02:38:21;;;;;;;5.78;0.77;;;;;;;;;;5096596;28;20075;-67
2022/12/08 02:40:48;;;;;;;5.95;0.82;;;;;;;;;;5094437;28;20154;-68
2022/12/08 02:43:24;;;;;;;5.60;0.70;;;;;;;;;;5075830;28;20158;-68
2022/12/08 02:45:54;;;;;;;5.13;0.73;;;;;;;;;;5078238;28;20169;-68
2022/12/08 02:48:21;;;;;;;2.42;0.60;;;;;;;;;;5075131;28;20061;-67
2022/12/08 02:50:47;;;;;;;2.30;0.40;;;;;;;;;;5058088;28;20048;-67
2022/12/08 02:53:13;;;;;;;2.00;0.35;;;;;;;;;;5098464;28;20483;-68
2022/12/08 02:55:49;;;;;;;1.92;0.50;;;;;;;;;;5098001;28;20476;-67
2022/12/08 02:58:28;;;;;;;2.42;0.80;;;;;;;;;;5079812;28;20040;-68
2022/12/08 03:01:03;;;;;;;4.65;0.60;;;;;;;;;;5093965;28;20050;-67
2022/12/08 03:03:37;;;;;;;3.58;0.50;;;;;;;;;;5077381;28;20044;-68
2022/12/08 03:06:08;;;;;;;1.48;0.50;;;;;;;;;;5059078;28;20228;-67
2022/12/08 03:08:40;;;;;;;2.33;0.45;;;;;;;;;;5094839;28;20398;-67
2022/12/08 03:11:19;;;;;;;1.45;0.40;;;;;;;;;;5074226;28;20426;-67
2022/12/08 03:13:48;;;;;;;0.57;0.30;;;;;;;;;;5094442;28;20044;-67
2022/12/08 03:16:15;;;;;;;2.80;0.40;;;;;;;;;;5073901;28;20051;-67
2022/12/08 03:18:45;;;;;;;1.23;0.40;;;;;;;;;;5075052;28;20047;-68
2022/12/08 03:21:12;;;;;;;1.25;0.32;;;;;;;;;;5082144;28;20076;-67
2022/12/08 03:23:39;;;;;;;4.40;0.75;;;;;;;;;;5084584;28;20043;-68
2022/12/08 03:26:13;;;;;;;0.75;0.43;;;;;;;;;;5099125;28;20051;-68
2022/12/08 03:28:39;;;;;;;1.88;0.40;;;;;;;;;;5096102;28;20056;-67
2022/12/08 03:31:07;;;;;;;0.65;0.35;;;;;;;;;;5079029;28;20368;-67
2022/12/08 03:33:36;;;;;;;2.22;0.40;;;;;;;;;;5095836;28;20059;-67
2022/12/08 03:36:04;;;;;;;1.23;0.35;;;;;;;;;;5099381;28;20093;-67
2022/12/08 03:38:38;;;;;;;3.55;0.40;;;;;;;;;;5077199;28;20122;-67
2022/12/08 03:41:17;;;;;;;2.17;0.57;;;;;;;;;;5061974;28;20051;-67
2022/12/08 03:43:45;;;;;;;2.83;0.60;;;;;;;;;;5098280;28;20499;-67
2022/12/08 03:46:11;;;;;;;2.05;0.60;;;;;;;;;;5080708;28;20039;-67
2022/12/08 03:48:37;;;;;;;4.55;0.75;;;;;;;;;;5081783;28;21007;-67
2022/12/08 03:51:03;;;;;;;2.60;0.50;;;;;;;;;;5082550;28;20046;-67
2022/12/08 03:53:29;;;;;;;3.15;0.50;;;;;;;;;;5075011;28;20047;-67
2022/12/08 03:55:55;;;;;;;4.00;0.50;;;;;;;;;;5079266;28;20062;-67
2022/12/08 03:58:22;;;;;;;4.53;0.40;;;;;;;;;;5100453;28;20055;-67
2022/12/08 04:00:48;;;;;;;1.65;0.47;;;;;;;;;;5078200;28;20093;-68
2022/12/08 04:03:14;;;;;;;1.85;0.60;;;;;;;;;;5097874;28;20123;-68
2022/12/08 04:05:40;;;;;;;2.75;0.50;;;;;;;;;;5081223;28;20089;-67
2022/12/08 04:08:06;;;;;;;5.22;0.60;;;;;;;;;;5095945;28;20054;-68
2022/12/08 04:10:32;;;;;;;5.13;0.73;;;;;;;;;;5077245;28;20043;-68
2022/12/08 04:12:59;;;;;;;1.25;0.43;;;;;;;;;;5099447;28;20035;-67
2022/12/08 04:15:25;;;;;;;4.68;0.63;;;;;;;;;;5078175;28;20067;-68
2022/12/08 04:17:51;;;;;;;2.25;0.47;;;;;;;;;;5094640;28;20089;-67
2022/12/08 04:20:17;;;;;;;3.03;0.60;;;;;;;;;;5101195;28;20039;-68
2022/12/08 04:22:43;;;;;;;3.58;1.33;;;;;;;;;;5079444;28;20131;-67
2022/12/08 04:25:09;;;;;;;2.35;0.50;;;;;;;;;;5080756;28;20079;-68
2022/12/08 04:27:35;;;;;;;5.55;0.60;;;;;;;;;;5096068;28;20128;-67
2022/12/08 04:30:02;;;;;;;1.38;0.60;;;;;;;;;;5077212;28;20452;-68
2022/12/08 04:32:28;;;;;;;5.32;0.60;;;;;;;;;;5098571;28;20441;-68
2022/12/08 04:34:54;;;;;;;2.67;0.35;;;;;;;;;;5094134;28;20123;-67
2022/12/08 04:37:20;;;;;;;3.72;0.90;;;;;;;;;;5098869;28;20035;-68
2022/12/08 04:39:46;;;;;;;2.15;0.77;;;;;;;;;;5096320;28;20044;-68
2022/12/08 04:42:12;;;;;;;4.13;0.65;;;;;;;;;;5079164;28;20112;-67
2022/12/08 04:44:38;;;;;;;3.33;0.70;;;;;;;;;;5097704;28;20535;-68
2022/12/08 04:47:05;;;;;;;3.22;0.70;;;;;;;;;;5095949;28;20052;-67
2022/12/08 04:49:31;;;;;;;0.98;0.40;;;;;;;;;;5094771;28;20131;-67
2022/12/08 04:51:57;;;;;;;1.58;0.40;;;;;;;;;;5078281;28;20048;-67
2022/12/08 04:54:23;;;;;;;8.40;0.85;;;;;;;;;;5097344;28;20044;-67
2022/12/08 04:56:49;;;;;;;2.83;0.60;;;;;;;;;;5095961;28;20083;-67
2022/12/08 04:59:15;;;;;;;4.65;0.68;;;;;;;;;;5095620;28;21146;-67
2022/12/08 05:01:41;;;;;;;2.13;0.88;;;;;;;;;;5098328;28;20051;-68
2022/12/08 05:04:07;;;;;;;4.63;1.05;;;;;;;;;;5094120;28;20051;-68
2022/12/08 05:06:34;;;;;;;1.88;0.50;;;;;;;;;;5095253;28;20122;-69
2022/12/08 05:09:00;;;;;;;11.27;2.05;;;;;;;;;;5081738;28;20145;-67
2022/12/08 05:11:26;;;;;;;3.50;0.80;;;;;;;;;;5097898;28;20048;-68
2022/12/08 05:13:52;;;;;;;6.78;0.77;;;;;;;;;;5092994;28;20039;-67
2022/12/08 05:16:18;;;;;;;3.30;0.60;;;;;;;;;;5079234;28;20079;-67
2022/12/08 05:18:44;;;;;;;1.55;0.60;;;;;;;;;;5097620;28;20498;-67
2022/12/08 05:21:10;;;;;;;3.97;0.40;;;;;;;;;;5099931;28;20081;-68
2022/12/08 05:23:37;;;;;;;7.57;0.60;;;;;;;;;;5095399;28;20701;-67
2022/12/08 05:26:03;;;;;;;4.25;0.60;;;;;;;;;;5093925;28;20439;-67
2022/12/08 05:28:29;;;;;;;3.15;0.70;;;;;;;;;;5077897;28;20054;-67
2022/12/08 05:30:55;;;;;;;2.08;0.60;;;;;;;;;;5095705;28;20036;-67
2022/12/08 05:33:21;;;;;;;1.38;0.50;;;;;;;;;;5095590;28;20044;-67
2022/12/08 05:35:47;;;;;;;2.95;0.63;;;;;;;;;;5095895;28;20054;-67
2022/12/08 05:38:14;;;;;;;1.50;0.50;;;;;;;;;;5094275;28;20108;-67
2022/12/08 05:40:40;;;;;;;3.90;0.50;;;;;;;;;;5094792;28;20039;-67
2022/12/08 05:43:06;;;;;;;1.65;0.50;;;;;;;;;;5099802;28;20047;-67
2022/12/08 05:45:32;;;;;;;3.45;0.65;;;;;;;;;;5075480;28;20594;-67
2022/12/08 05:47:59;;;;;;;2.00;0.50;;;;;;;;;;5074598;28;20093;-67
2022/12/08 05:50:25;;;;;;;5.53;0.70;;;;;;;;;;5079342;28;20429;-67
2022/12/08 05:52:51;;;;;;;2.80;0.90;;;;;;;;;;5094649;28;20032;-67
2022/12/08 05:55:17;;;;;;;3.10;0.95;;;;;;;;;;5078083;28;20067;-67
2022/12/08 05:57:43;;;;;;;2.90;0.80;;;;;;;;;;5097165;28;20093;-67
2022/12/08 06:00:10;;;;;;;5.90;0.98;;;;;;;;;;5098082;28;20044;-67
2022/12/08 06:02:36;;;;;;;3.58;0.90;;;;;;;;;;5097335;28;20091;-67
2022/12/08 06:05:02;;;;;;;2.83;0.68;;;;;;;;;;5098366;28;20092;-68
2022/12/08 06:07:28;;;;;;;4.65;0.77;;;;;;;;;;5102240;28;20566;-67
2022/12/08 06:09:54;;;;;;;5.88;0.93;;;;;;;;;;5082575;28;20948;-67
2022/12/08 06:12:20;;;;;;;8.80;1.00;;;;;;;;;;5101308;28;20074;-68
2022/12/08 06:14:47;;;;;;;3.15;0.57;;;;;;;;;;5097635;28;20135;-68
2022/12/08 06:17:13;;;;;;;4.03;0.60;;;;;;;;;;5098394;28;20035;-67
2022/12/08 06:19:39;;;;;;;10.63;0.90;;;;;;;;;;5093873;28;20083;-68
2022/12/08 06:22:05;;;;;;;4.50;0.80;;;;;;;;;;5078298;28;20055;-68
2022/12/08 06:24:31;;;;;;;3.15;0.82;;;;;;;;;;5077683;28;20047;-67
2022/12/08 06:26:57;;;;;;;5.80;1.10;;;;;;;;;;5097725;28;20188;-67
2022/12/08 06:29:24;;;;;;;7.68;0.77;;;;;;;;;;5093790;28;20047;-67
2022/12/08 06:31:51;;;;;;;8.77;0.88;;;;;;;;;;5080345;28;20193;-68
2022/12/08 06:34:17;;;;;;;5.00;0.70;;;;;;;;;;5098662;28;20463;-67
2022/12/08 06:36:43;;;;;;;5.07;0.80;;;;;;;;;;5106090;28;20079;-67
2022/12/08 06:39:10;;;;;;;9.18;1.10;;;;;;;;;;5106377;28;20043;-67
2022/12/08 06:42:42;;;;;;;5.55;1.00;;;;;;;;;;5108049;28;20055;-67
2022/12/08 06:44:22;;;;;;;10.63;1.10;;;;;;;;;;5106103;28;20032;-67
2022/12/08 06:46:48;;;;;;;3.28;0.70;;;;;;;;;;5089856;28;20079;-68
2022/12/08 06:49:14;;;;;;;7.82;0.85;;;;;;;;;;5104588;28;20051;-67
2022/12/08 06:51:41;;;;;;;9.43;0.80;;;;;;;;;;5089504;28;20124;-67
2022/12/08 06:54:07;;;;;;;4.07;0.70;;;;;;;;;;5111106;28;20498;-67
2022/12/08 06:56:33;;;;;;;6.60;0.80;;;;;;;;;;5104612;28;20035;-67
2022/12/08 06:58:59;;;;;;;9.80;1.13;;;;;;;;;;5088290;28;20070;-67
2022/12/08 07:01:25;;;;;;;11.55;1.77;;;;;;;;;;5088590;28;20130;-67
2022/12/08 07:03:51;;;;;;;7.30;1.10;;;;;;;;;;5072703;28;20051;-67
2022/12/08 07:06:21;;;;;;;6.38;1.08;;;;;;;;;;5106368;28;20040;-67
2022/12/08 07:08:47;;;;;;;5.63;1.00;;;;;;;;;;5110656;28;20040;-67
2022/12/08 07:11:13;;;;;;;2.95;0.90;;;;;;;;;;5106697;28;20052;-67
2022/12/08 07:13:39;;;;;;;4.57;0.70;;;;;;;;;;5109107;28;20043;-68
2022/12/08 07:16:07;;;;;;;5.28;1.17;;;;;;;;;;5111587;28;20131;-67
2022/12/08 07:18:33;;;;;;;3.83;0.80;;;;;;;;;;5103677;28;20032;-68
2022/12/08 07:21:04;;;;;;;2.53;0.90;;;;;;;;;;5103974;28;20036;-68
2022/12/08 07:23:30;;;;;;;2.67;0.85;;;;;;;;;;5085596;28;20121;-68
2022/12/08 07:25:59;;;;;;;4.13;0.90;;;;;;;;;;5103656;28;20040;-68
2022/12/08 07:28:25;;;;;;;3.47;0.98;;;;;;;;;;5102748;28;20442;-68
2022/12/08 07:30:51;;;;;;;8.63;1.00;;;;;;;;;;5101655;28;20059;-68
2022/12/08 07:33:17;;;;;;;6.35;1.38;;;;;;;;;;5102407;28;20364;-67
2022/12/08 07:35:44;;;;;;;4.00;1.27;;;;;;;;;;5104635;28;20415;-68
2022/12/08 07:38:10;;;;;;;5.20;0.90;;;;;;;;;;5104229;28;20516;-67
2022/12/08 07:40:38;;;;;;;7.72;1.58;;;;;;;;;;5085225;28;20059;-67
2022/12/08 07:43:04;;;;;;;3.97;0.95;;;;;;;;;;5103712;28;20047;-67
2022/12/08 07:45:30;;;;;;;5.15;1.98;;;;;;;;;;5103504;28;20065;-68
2022/12/08 07:47:56;;;;;;;7.03;1.20;;;;;;;;;;5104249;28;20056;-68
2022/12/08 07:50:22;;;;;;;8.07;1.20;;;;;;;;;;5104488;28;20044;-68
2022/12/08 07:52:49;;;;;;;5.30;1.10;;;;;;;;;;5102217;28;20093;-68
2022/12/08 07:55:15;;;;;;;6.18;1.00;;;;;;;;;;5104643;28;20051;-67
2022/12/08 07:57:41;;;;;;;9.20;1.67;;;;;;;;;;5102767;28;20040;-68
2022/12/08 08:00:08;;;;;;;5.05;1.33;;;;;;;;;;5102878;28;20498;-68
2022/12/08 08:02:34;;;;;;;4.55;1.42;;;;;;;;;;5105128;28;20139;-67
2022/12/08 08:05:00;;;;;;;4.63;1.00;;;;;;;;;;5084305;28;20146;-67
2022/12/08 08:07:26;;;;;;;6.93;1.55;;;;;;;;;;5104054;28;20036;-68
2022/12/08 08:09:53;;;;;;;3.20;0.95;;;;;;;;;;5085743;28;20062;-68
2022/12/08 08:12:19;;;;;;;8.57;2.25;;;;;;;;;;5101804;28;20039;-67
2022/12/08 08:14:46;;;;;;;3.90;1.13;;;;;;;;;;5101612;28;20047;-68
2022/12/08 08:17:12;;;;;;;7.88;2.47;;;;;;;;;;5104693;28;20463;-68
2022/12/08 08:19:38;;;;;;;3.97;1.10;;;;;;;;;;5104961;28;20491;-68
2022/12/08 08:22:04;;;;;;;7.05;1.40;;;;;;;;;;5103865;28;20508;-68
2022/12/08 08:24:30;;;;;;;11.13;1.48;;;;;;;;;;5086806;28;20415;-68
2022/12/08 08:26:56;;;;;;;5.90;1.13;;;;;;;;;;5104044;28;20453;-68
2022/12/08 08:29:22;;;;;;;6.78;1.27;;;;;;;;;;5103333;28;20039;-68
2022/12/08 08:31:49;;;;;;;11.77;1.75;;;;;;;;;;5085447;28;20039;-68
2022/12/08 08:34:15;;;;;;;6.75;1.50;;;;;;;;;;5083113;28;20093;-68
2022/12/08 08:36:41;;;;;;;9.80;1.58;;;;;;;;;;5103620;28;20043;-67
2022/12/08 08:39:08;;;;;;;4.82;1.67;;;;;;;;;;5085254;28;20047;-67
2022/12/08 08:41:34;;;;;;;8.88;1.30;;;;;;;;;;5098809;28;20238;-67
2022/12/08 08:44:00;;;;;;;11.63;2.67;;;;;;;;;;5100121;28;20086;-67
2022/12/08 08:46:26;;;;;;;7.28;1.80;;;;;;;;;;5101222;28;20097;-67
2022/12/08 08:48:53;;;;;;;7.43;1.40;;;;;;;;;;5100876;28;20055;-68
2022/12/08 08:51:19;;;;;;;5.13;1.20;;;;;;;;;;5099980;28;20089;-68
2022/12/08 08:53:45;;;;;;;6.05;1.42;;;;;;;;;;5104226;28;20222;-68
2022/12/08 08:56:12;;;;;;;7.05;2.25;;;;;;;;;;5101931;28;20583;-68
2022/12/08 08:58:38;;;;;;;7.88;1.98;;;;;;;;;;5101880;28;20478;-68
2022/12/08 09:01:05;;;;;;;6.35;1.30;;;;;;;;;;5101641;28;20131;-68
2022/12/08 09:03:31;;;;;;;11.88;1.70;;;;;;;;;;5083794;28;20051;-68
2022/12/08 09:05:57;;;;;;;8.10;1.75;;;;;;;;;;5083749;28;20963;-68
2022/12/08 09:08:23;;;;;;;6.32;2.40;;;;;;;;;;5080699;28;20051;-68
2022/12/08 09:10:49;;;;;;;8.10;2.30;;;;;;;;;;5080526;28;20047;-68
2022/12/08 09:13:16;;;;;;;3.88;1.30;;;;;;;;;;5084262;28;20043;-68
2022/12/08 09:15:42;;;;;;;3.03;1.30;;;;;;;;;;5083576;28;20407;-68
2022/12/08 09:18:08;;;;;;;8.38;1.52;;;;;;;;;;5082868;28;20384;-68
2022/12/08 09:20:35;;;;;;;9.52;2.17;;;;;;;;;;5083516;28;20043;-67
2022/12/08 09:23:01;;;;;;;7.40;1.58;;;;;;;;;;5101217;28;20585;-67
2022/12/08 09:25:27;;;;;;;9.10;1.70;;;;;;;;;;5098924;28;20048;-68
2022/12/08 09:27:54;;;;;;;11.70;1.80;;;;;;;;;;5100288;28;20458;-68
2022/12/08 09:30:20;;;;;;;8.60;1.65;;;;;;;;;;5101125;28;20463;-68
2022/12/08 09:32:46;;;;;;;5.03;1.48;;;;;;;;;;5082799;28;20131;-68
2022/12/08 09:35:12;;;;;;;7.85;1.92;;;;;;;;;;5101115;28;20044;-68
2022/12/08 09:37:38;;;;;;;5.70;1.35;;;;;;;;;;5099991;28;20146;-67
2022/12/08 09:40:05;;;;;;;9.30;2.55;;;;;;;;;;5103624;28;20083;-67
2022/12/08 09:42:38;;;;;;;7.57;1.75;;;;;;;;;;5103165;28;20117;-67
2022/12/08 09:45:09;;;;;;;5.78;1.40;;;;;;;;;;5082589;28;21457;-67
2022/12/08 09:47:38;;;;;;;8.77;1.70;;;;;;;;;;5102679;28;20044;-68
2022/12/08 09:50:10;;;;;;;6.32;1.77;;;;;;;;;;5082042;28;20388;-68
2022/12/08 09:52:40;;;;;;;9.93;1.77;;;;;;;;;;5079117;28;20131;-69
2022/12/08 09:55:16;;;;;;;11.48;2.28;;;;;;;;;;5102399;28;20131;-68
2022/12/08 09:57:43;;;;;;;12.20;2.20;;;;;;;;;;5103960;28;20043;-80
2022/12/08 10:00:11;;;;;;;8.73;1.40;;;;;;;;;;5105354;28;20463;-66
2022/12/08 10:02:38;;;;;;;18.73;4.50;;;;;;;;;;5100748;28;20130;-67
2022/12/08 10:05:04;;;;;;;10.20;1.50;;;;;;;;;;5080357;28;20363;-68
2022/12/08 10:07:43;;;;;;;6.00;1.30;;;;;;;;;;5083258;28;20044;-67
2022/12/08 10:10:37;;;;;;;7.72;1.67;;;;;;;;;;5086919;28;20097;-67
2022/12/08 10:13:04;;;;;;;9.95;1.90;;;;;;;;;;5098680;28;20062;-68
2022/12/08 10:15:43;;;;;;;7.45;1.50;;;;;;;;;;5104286;28;20131;-68
2022/12/08 10:18:12;;;;;;;11.15;2.20;;;;;;;;;;5103099;28;20043;-67
2022/12/08 10:20:40;;;;;;;11.23;2.25;;;;;;;;;;5088797;28;20040;-66
2022/12/08 10:23:13;;;;;;;7.63;2.67;;;;;;;;;;5108269;28;20106;-66
2022/12/08 10:25:44;;;;;;;9.02;1.35;;;;;;;;;;5105121;28;20348;-66
2022/12/08 10:28:10;;;;;;;9.45;2.13;;;;;;;;;;5086552;28;20081;-66
2022/12/08 10:30:37;;;;;;;9.70;2.40;;;;;;;;;;5106912;28;20093;-65
2022/12/08 10:33:03;;;;;;;8.38;2.13;;;;;;;;;;5107051;28;20074;-68
2022/12/08 10:35:43;;;;;;;12.52;1.95;;;;;;;;;;5107446;28;20604;-68
2022/12/08 10:38:16;;;;;;;12.02;2.38;;;;;;;;;;5088784;28;20475;-67
2022/12/08 10:40:43;;;;;;;16.58;2.83;;;;;;;;;;5087180;28;20392;-67
2022/12/08 10:43:13;;;;;;;11.55;2.10;;;;;;;;;;5086214;28;20434;-68
2022/12/08 10:45:41;;;;;;;8.48;2.08;;;;;;;;;;5083986;28;20044;-66
2022/12/08 10:48:19;;;;;;;8.27;2.45;;;;;;;;;;5084550;28;20506;-67
2022/12/08 10:50:47;;;;;;;8.77;2.20;;;;;;;;;;5085993;28;20048;-67
2022/12/08 10:53:14;;;;;;;6.82;2.03;;;;;;;;;;5088086;28;20048;-67
2022/12/08 10:55:44;;;;;;;12.18;2.83;;;;;;;;;;5085515;28;20046;-66
2022/12/08 10:58:28;;;;;;;12.35;1.90;;;;;;;;;;5086642;28;20082;-66
2022/12/08 11:00:57;;;;;;;10.93;3.00;;;;;;;;;;5086761;28;20048;-67
2022/12/08 11:03:28;;;;;;;15.18;3.40;;;;;;;;;;5084587;28;20131;-67
2022/12/08 11:05:56;;;;;;;15.85;3.08;;;;;;;;;;5089855;28;20044;-67
2022/12/08 11:08:22;;;;;;;9.85;2.40;;;;;;;;;;5090965;28;20062;-67
2022/12/08 11:10:48;;;;;;;8.23;2.05;;;;;;;;;;5088461;28;20097;-67
2022/12/08 11:13:19;;;;;;;11.02;2.40;;;;;;;;;;5086029;28;20044;-67
2022/12/08 11:15:46;;;;;;;9.15;2.58;;;;;;;;;;5086853;28;20043;-67
2022/12/08 11:18:21;;;;;;;10.73;2.22;;;;;;;;;;5086194;28;20034;-67
2022/12/08 11:20:55;;;;;;;8.30;2.72;;;;;;;;;;5087037;28;20036;-67
2022/12/08 11:23:23;;;;;;;10.48;1.90;;;;;;;;;;5087800;28;20629;-67
2022/12/08 11:25:50;;;;;;;7.03;2.15;;;;;;;;;;5086813;28;20090;-66
2022/12/08 11:28:16;;;;;;;6.78;2.10;;;;;;;;;;5087974;28;20047;-66
2022/12/08 11:30:46;;;;;;;4.57;1.08;;;;;;;;;;5086878;28;20198;-67
2022/12/08 11:33:16;;;;;;;2.67;0.50;;;;;;;;;;5085880;28;20051;-66
2022/12/08 11:35:44;;;;;;;3.35;0.50;;;;;;;;;;5085996;28;20446;-66
2022/12/08 11:38:14;;;;;;;1.48;0.73;;;;;;;;;;5084256;28;20144;-67
2022/12/08 11:40:41;;;;;;;4.75;0.70;;;;;;;;;;5092330;28;20052;-66
2022/12/08 11:43:20;;;;;;;4.07;0.57;;;;;;;;;;5105671;28;20044;-66
2022/12/08 11:45:49;;;;;;;2.90;0.60;;;;;;;;;;5106479;28;20040;-66
2022/12/08 11:48:18;;;;;;;4.60;0.88;;;;;;;;;;5106864;28;20089;-67
2022/12/08 11:50:51;;;;;;;2.30;0.63;;;;;;;;;;5087889;28;20113;-67
2022/12/08 11:53:25;;;;;;;3.00;0.57;;;;;;;;;;5087521;28;20445;-67
2022/12/08 11:55:55;;;;;;;2.80;0.40;;;;;;;;;;5089052;28;20039;-67
2022/12/08 11:58:23;;;;;;;2.20;0.50;;;;;;;;;;5104953;28;20470;-67
2022/12/08 12:00:49;;;;;;;4.25;0.60;;;;;;;;;;5106308;28;20043;-67
2022/12/08 12:03:32;;;;;;;4.22;0.60;;;;;;;;;;5107128;28;20077;-67
2022/12/08 12:05:59;;;;;;;2.40;0.60;;;;;;;;;;5105125;28;20079;-67
2022/12/08 12:08:26;;;;;;;5.45;0.98;;;;;;;;;;5088665;28;20054;-67
2022/12/08 12:11:02;;;;;;;4.30;0.80;;;;;;;;;;5106933;28;20123;-67
2022/12/08 12:13:32;;;;;;;2.33;0.80;;;;;;;;;;5082731;28;20035;-67
2022/12/08 12:16:23;;;;;;;4.00;0.85;;;;;;;;;;5105587;28;20414;-67
2022/12/08 12:18:51;;;;;;;2.63;0.90;;;;;;;;;;5105241;28;20069;-66
2022/12/08 12:21:35;;;;;;;2.38;0.65;;;;;;;;;;5105869;28;20070;-67
2022/12/08 12:24:01;;;;;;;2.30;0.60;;;;;;;;;;5086907;28;20044;-67
2022/12/08 12:26:29;;;;;;;1.25;0.50;;;;;;;;;;5087720;28;20117;-67
2022/12/08 12:29:00;;;;;;;7.05;0.63;;;;;;;;;;5088299;28;20040;-67
2022/12/08 12:31:28;;;;;;;4.00;1.15;;;;;;;;;;5107013;28;20052;-67
2022/12/08 12:34:04;;;;;;;4.03;0.73;;;;;;;;;;5103216;28;20071;-67
2022/12/08 12:36:31;;;;;;;6.60;0.70;;;;;;;;;;5104841;28;20198;-67
2022/12/08 12:39:05;;;;;;;4.80;0.80;;;;;;;;;;5107547;28;20051;-67
2022/12/08 12:41:35;;;;;;;5.45;1.15;;;;;;;;;;5105362;28;20078;-67
2022/12/08 12:44:08;;;;;;;6.32;1.05;;;;;;;;;;5088616;28;20052;-67
2022/12/08 12:46:47;;;;;;;3.30;0.93;;;;;;;;;;5087753;28;20043;-67
2022/12/08 12:49:32;;;;;;;4.50;1.00;;;;;;;;;;5105670;28;20039;-67
2022/12/08 12:51:58;;;;;;;5.72;1.10;;;;;;;;;;5089377;28;20047;-67
2022/12/08 12:54:25;;;;;;;4.63;1.83;;;;;;;;;;5103916;28;20035;-67
2022/12/08 12:56:54;;;;;;;4.10;1.42;;;;;;;;;;5103960;28;20134;-67
2022/12/08 12:59:22;;;;;;;5.13;1.58;;;;;;;;;;5105849;28;20090;-68
2022/12/08 13:01:51;;;;;;;4.75;1.30;;;;;;;;;;5101702;28;20112;-83
2022/12/08 13:04:18;;;;;;;8.25;1.33;;;;;;;;;;5081756;28;20549;-66
2022/12/08 13:06:46;;;;;;;6.18;1.20;;;;;;;;;;5090105;28;20047;-67
2022/12/08 13:09:20;;;;;;;3.80;1.10;;;;;;;;;;5086337;28;20602;-67
2022/12/08 13:11:49;;;;;;;7.30;1.70;;;;;;;;;;5108635;28;20032;-67
2022/12/08 13:14:29;;;;;;;4.57;1.08;;;;;;;;;;5105638;28;20042;-67
2022/12/08 13:16:57;;;;;;;3.75;1.08;;;;;;;;;;5104861;28;20449;-67
2022/12/08 13:19:23;;;;;;;3.35;1.10;;;;;;;;;;5105826;28;20036;-67
2022/12/08 13:21:49;;;;;;;4.93;1.00;;;;;;;;;;5085281;28;20551;-67
2022/12/08 13:24:25;;;;;;;7.53;1.33;;;;;;;;;;5105281;28;20317;-67
2022/12/08 13:27:03;;;;;;;7.25;1.52;;;;;;;;;;5085633;28;20050;-67
2022/12/08 13:29:30;;;;;;;5.25;1.30;;;;;;;;;;5103518;28;20130;-67
2022/12/08 13:31:56;;;;;;;2.03;0.98;;;;;;;;;;5086646;28;20044;-67
2022/12/08 13:34:32;;;;;;;6.18;1.20;;;;;;;;;;5104669;28;20105;-67
2022/12/08 13:37:03;;;;;;;6.50;2.28;;;;;;;;;;5100002;28;20429;-67
2022/12/08 13:39:34;;;;;;;3.83;1.42;;;;;;;;;;5102345;28;20038;-67
2022/12/08 13:42:03;;;;;;;5.53;1.05;;;;;;;;;;5104685;28;20075;-67
2022/12/08 13:44:35;;;;;;;3.70;1.15;;;;;;;;;;5105010;28;20423;-67
2022/12/08 13:47:03;;;;;;;5.47;1.33;;;;;;;;;;5103900;28;20046;-66
2022/12/08 13:49:41;;;;;;;5.50;1.17;;;;;;;;;;5084703;28;20405;-67
2022/12/08 13:52:14;;;;;;;4.20;1.10;;;;;;;;;;5083337;28;20059;-67
2022/12/08 13:54:40;;;;;;;4.57;1.05;;;;;;;;;;5108441;28;20043;-67
2022/12/08 13:57:12;;;;;;;4.18;1.38;;;;;;;;;;5088328;28;20050;-67
2022/12/08 13:59:43;;;;;;;3.55;0.90;;;;;;;;;;5085675;28;20047;-67
2022/12/08 14:02:17;;;;;;;7.85;1.55;;;;;;;;;;5085273;28;20057;-67
2022/12/08 14:04:46;;;;;;;4.47;1.08;;;;;;;;;;5103618;28;20053;-66
2022/12/08 14:07:12;;;;;;;6.45;1.30;;;;;;;;;;5104609;28;20048;-67
2022/12/08 14:09:39;;;;;;;4.35;1.63;;;;;;;;;;5103832;28;20071;-67
2022/12/08 14:12:17;;;;;;;3.67;1.23;;;;;;;;;;5103203;28;20065;-67
2022/12/08 14:14:45;;;;;;;6.28;1.23;;;;;;;;;;5103835;28;20059;-67
2022/12/08 14:17:14;;;;;;;4.68;1.15;;;;;;;;;;5087216;28;20127;-66
2022/12/08 14:19:43;;;;;;;5.03;1.10;;;;;;;;;;5102947;28;20043;-67
2022/12/08 14:22:11;;;;;;;7.22;1.48;;;;;;;;;;5103910;28;20126;-67
2022/12/08 14:24:38;;;;;;;5.75;1.50;;;;;;;;;;5107373;28;20441;-67
2022/12/08 14:27:05;;;;;;;10.32;1.65;;;;;;;;;;5089144;28;20051;-67
2022/12/08 14:29:36;;;;;;;11.05;1.40;;;;;;;;;;5087003;28;20395;-67
2022/12/08 14:32:03;;;;;;;13.10;1.30;;;;;;;;;;5101720;28;20522;-67
2022/12/08 14:34:29;;;;;;;5.90;1.50;;;;;;;;;;5084697;28;20130;-67
2022/12/08 14:36:55;;;;;;;4.70;1.40;;;;;;;;;;5086377;28;20100;-67
2022/12/08 14:39:22;;;;;;;4.47;1.30;;;;;;;;;;5087509;28;20054;-67
2022/12/08 14:42:01;;;;;;;5.45;1.55;;;;;;;;;;5103705;28;21294;-66
2022/12/08 14:44:30;;;;;;;6.10;1.65;;;;;;;;;;5101386;28;20054;-66
2022/12/08 14:47:05;;;;;;;5.95;1.50;;;;;;;;;;5102922;28;20043;-67
2022/12/08 14:49:32;;;;;;;5.10;1.52;;;;;;;;;;5103604;28;20058;-67
2022/12/08 14:52:00;;;;;;;13.30;1.70;;;;;;;;;;5105006;28;20043;-66